Time;durP1;ratioP1;P1;durP2;ratioP2;P2;SDS_P1;SDS_P2;PMS_P1;PMS_P2;Temp;Humidity;BMP_temperature;BMP_pressure;BME280_temperature;BME280_humidity;BME280_pressure;Samples;Min_cycle;Max_cycle;Signal;HPM_P1;HPM_P2
2024/01/31 00:00:06;;;;;;;20.03;10.90;;;8.60;95.40;;;;;;785316;180;26476;-79
2024/01/31 00:02:27;;;;;;;20.03;10.70;;;8.50;95.50;;;;;;781685;180;26444;-79
2024/01/31 00:04:54;;;;;;;25.33;12.87;;;8.50;95.70;;;;;;773727;186;26629;-79
2024/01/31 00:07:20;;;;;;;27.57;13.67;;;8.50;95.80;;;;;;776792;185;26460;-78
2024/01/31 00:09:47;;;;;;;21.53;11.80;;;8.40;95.80;;;;;;782620;184;26522;-80
2024/01/31 00:12:13;;;;;;;35.53;17.17;;;8.40;95.90;;;;;;782906;178;26493;-79
2024/01/31 00:14:40;;;;;;;24.07;11.70;;;8.50;96.00;;;;;;782427;184;26502;-81
2024/01/31 00:17:07;;;;;;;30.70;15.40;;;8.40;95.90;;;;;;777121;181;26459;-79
2024/01/31 00:19:33;;;;;;;31.13;14.70;;;8.40;96.00;;;;;;793845;181;26473;-79
2024/01/31 00:22:00;;;;;;;30.50;15.20;;;8.40;96.20;;;;;;773072;183;27025;-79
2024/01/31 00:24:27;;;;;;;33.80;17.57;;;8.40;96.40;;;;;;762516;187;27059;-79
2024/01/31 00:26:53;;;;;;;35.33;17.73;;;8.40;96.80;;;;;;775705;185;27208;-79
2024/01/31 00:29:20;;;;;;;32.13;15.27;;;8.40;96.90;;;;;;774033;186;26470;-81
2024/01/31 00:31:46;;;;;;;38.33;16.93;;;8.40;96.70;;;;;;774070;182;26501;-79
2024/01/31 00:34:13;;;;;;;35.13;17.13;;;8.40;96.80;;;;;;773388;182;26453;-79
2024/01/31 00:36:40;;;;;;;31.77;16.03;;;8.40;96.90;;;;;;773298;185;26535;-79
2024/01/31 00:39:07;;;;;;;33.87;16.20;;;8.30;97.00;;;;;;773269;185;27026;-79
2024/01/31 00:41:33;;;;;;;45.60;19.47;;;8.30;97.10;;;;;;774778;180;26503;-79
2024/01/31 00:43:59;;;;;;;36.23;18.37;;;8.30;97.30;;;;;;784347;182;26989;-80
2024/01/31 00:46:26;;;;;;;37.63;17.73;;;8.30;97.30;;;;;;784345;183;26468;-76
2024/01/31 00:48:53;;;;;;;40.57;17.93;;;8.30;97.40;;;;;;782814;184;26716;-79
2024/01/31 00:51:19;;;;;;;33.03;16.50;;;8.30;97.40;;;;;;782507;179;27042;-79
2024/01/31 00:53:46;;;;;;;38.73;17.57;;;8.30;97.40;;;;;;780826;180;26473;-78
2024/01/31 00:56:13;;;;;;;45.37;19.13;;;8.30;97.40;;;;;;782044;179;26985;-79
2024/01/31 00:58:39;;;;;;;47.07;22.07;;;8.30;97.60;;;;;;799598;180;26519;-79
2024/01/31 01:01:06;;;;;;;42.47;21.37;;;8.30;97.50;;;;;;793421;180;27095;-79
2024/01/31 01:03:32;;;;;;;35.43;18.40;;;8.30;97.60;;;;;;793880;180;26491;-79
2024/01/31 01:05:59;;;;;;;39.90;18.50;;;8.30;97.50;;;;;;771657;183;26514;-79
2024/01/31 01:08:25;;;;;;;42.30;18.23;;;8.30;97.50;;;;;;776760;181;26444;-79
2024/01/31 01:10:52;;;;;;;39.23;20.27;;;8.20;97.60;;;;;;774231;183;26495;-78
2024/01/31 01:13:19;;;;;;;40.00;20.40;;;8.30;97.90;;;;;;778280;183;27019;-79
2024/01/31 01:15:45;;;;;;;45.90;21.10;;;8.30;97.90;;;;;;775419;180;26471;-78
2024/01/31 01:18:12;;;;;;;40.43;21.03;;;8.30;98.10;;;;;;775985;186;26457;-80
2024/01/31 01:20:38;;;;;;;43.60;22.20;;;8.20;98.30;;;;;;775703;182;26476;-81
2024/01/31 01:23:06;;;;;;;46.47;21.33;;;8.20;98.40;;;;;;775783;184;26441;-80
2024/01/31 01:25:31;;;;;;;43.57;21.97;;;8.10;98.40;;;;;;786806;181;26444;-79
2024/01/31 01:27:58;;;;;;;45.03;22.57;;;8.10;98.50;;;;;;782437;178;26485;-79
2024/01/31 01:30:25;;;;;;;48.93;23.80;;;8.10;98.60;;;;;;782718;179;27108;-79
2024/01/31 01:32:51;;;;;;;44.23;22.67;;;8.10;98.80;;;;;;782753;181;26471;-79
2024/01/31 01:35:18;;;;;;;44.67;20.17;;;8.10;99.40;;;;;;782280;182;26493;-79
2024/01/31 01:37:44;;;;;;;40.70;21.87;;;8.00;99.10;;;;;;782184;181;26526;-79
2024/01/31 01:40:11;;;;;;;49.83;22.57;;;8.00;99.30;;;;;;782529;179;26528;-79
2024/01/31 01:42:39;;;;;;;46.80;24.47;;;8.00;99.40;;;;;;777325;180;26707;-79
2024/01/31 01:45:06;;;;;;;49.23;22.47;;;8.00;99.50;;;;;;774805;186;26457;-78
2024/01/31 01:47:32;;;;;;;43.90;21.53;;;7.90;99.80;;;;;;773222;185;26495;-77
2024/01/31 01:49:59;;;;;;;45.60;23.07;;;8.00;99.50;;;;;;784901;180;26496;-76
2024/01/31 01:52:25;;;;;;;50.67;22.73;;;8.00;99.40;;;;;;794366;180;26502;-78
2024/01/31 01:54:52;;;;;;;41.67;21.80;;;8.00;99.40;;;;;;795799;179;27047;-79
2024/01/31 01:57:18;;;;;;;41.07;19.57;;;8.00;99.30;;;;;;794964;180;26481;-79
2024/01/31 01:59:45;;;;;;;37.27;20.07;;;8.00;99.30;;;;;;784175;183;26485;-79
2024/01/31 02:02:12;;;;;;;41.13;20.40;;;8.00;99.20;;;;;;781600;181;26451;-77
2024/01/31 02:04:38;;;;;;;43.17;21.60;;;8.00;99.10;;;;;;782143;180;26484;-79
2024/01/31 02:07:05;;;;;;;43.90;21.20;;;8.00;99.20;;;;;;781427;180;26481;-79
2024/01/31 02:09:31;;;;;;;43.57;21.43;;;7.90;99.40;;;;;;795433;176;26504;-79
2024/01/31 02:11:58;;;;;;;42.57;21.57;;;7.90;99.30;;;;;;794564;179;27032;-79
2024/01/31 02:14:25;;;;;;;46.03;22.53;;;7.90;99.40;;;;;;782080;181;26458;-77
2024/01/31 02:16:56;;;;;;;51.97;23.93;;;7.90;99.80;;;;;;777728;181;26457;-79
2024/01/31 02:19:18;;;;;;;44.20;22.67;;;7.90;99.90;;;;;;777957;182;26481;-78
2024/01/31 02:21:44;;;;;;;46.47;22.03;;;7.90;99.60;;;;;;773671;185;26509;-80
2024/01/31 02:24:14;;;;;;;44.73;20.87;;;7.80;99.50;;;;;;776140;185;26456;-77
2024/01/31 02:26:41;;;;;;;44.50;22.07;;;7.90;99.70;;;;;;761293;183;26445;-77
2024/01/31 02:29:08;;;;;;;47.43;20.87;;;7.90;99.60;;;;;;767185;187;26505;-80
2024/01/31 02:31:34;;;;;;;41.63;21.77;;;7.90;99.50;;;;;;783059;181;26493;-79
2024/01/31 02:34:01;;;;;;;41.23;21.50;;;7.90;99.50;;;;;;795440;180;26468;-80
2024/01/31 02:36:27;;;;;;;51.57;22.87;;;7.90;99.60;;;;;;792450;181;27334;-79
2024/01/31 02:38:54;;;;;;;42.33;21.63;;;7.90;99.60;;;;;;775007;185;26497;-78
2024/01/31 02:41:21;;;;;;;42.60;20.83;;;7.90;99.60;;;;;;780363;183;26490;-79
2024/01/31 02:43:48;;;;;;;52.93;24.00;;;7.90;99.70;;;;;;798914;180;26448;-79
2024/01/31 02:46:14;;;;;;;48.93;21.57;;;7.90;99.60;;;;;;796636;180;26456;-80
2024/01/31 02:48:40;;;;;;;52.10;24.53;;;7.80;99.70;;;;;;796173;180;26449;-77
2024/01/31 02:51:07;;;;;;;50.87;22.87;;;7.80;99.90;;;;;;796354;181;26461;-79
2024/01/31 02:53:34;;;;;;;54.37;25.30;;;7.90;99.90;;;;;;794861;181;26440;-79
2024/01/31 02:56:00;;;;;;;52.07;24.10;;;7.90;99.90;;;;;;794373;181;26448;-78
2024/01/31 02:58:27;;;;;;;55.77;25.60;;;7.90;99.90;;;;;;784047;180;26618;-79
2024/01/31 03:00:53;;;;;;;55.10;26.27;;;7.90;99.90;;;;;;780312;184;26616;-79
2024/01/31 03:03:20;;;;;;;53.87;25.43;;;7.90;99.90;;;;;;779551;183;26459;-80
2024/01/31 03:05:47;;;;;;;56.37;24.53;;;7.90;99.90;;;;;;785539;179;27042;-77
2024/01/31 03:08:13;;;;;;;55.97;24.60;;;7.80;99.80;;;;;;787470;180;26465;-80
2024/01/31 03:10:44;;;;;;;55.83;27.17;;;7.80;99.90;;;;;;790587;182;26506;-77
2024/01/31 03:13:06;;;;;;;55.07;25.90;;;7.90;99.90;;;;;;790522;181;26473;-79
2024/01/31 03:15:33;;;;;;;60.57;28.40;;;7.90;99.90;;;;;;791987;181;26441;-79
2024/01/31 03:18:00;;;;;;;55.50;25.23;;;7.90;99.80;;;;;;792017;180;26459;-78
2024/01/31 03:20:26;;;;;;;56.40;25.60;;;7.90;99.80;;;;;;790915;180;26467;-79
2024/01/31 03:22:53;;;;;;;55.63;25.77;;;7.90;99.80;;;;;;786706;180;26618;-76
2024/01/31 03:25:19;;;;;;;57.50;27.53;;;7.90;99.80;;;;;;782655;182;27011;-79
2024/01/31 03:27:46;;;;;;;67.67;27.43;;;7.90;99.80;;;;;;787747;181;26452;-79
2024/01/31 03:30:13;;;;;;;60.27;27.27;;;7.90;99.80;;;;;;773551;180;26837;-79
2024/01/31 03:32:39;;;;;;;53.23;24.53;;;7.80;99.90;;;;;;791110;180;26468;-79
2024/01/31 03:35:06;;;;;;;60.00;27.07;;;7.80;99.90;;;;;;794547;181;26473;-79
2024/01/31 03:37:33;;;;;;;62.57;25.73;;;7.80;99.90;;;;;;794286;181;26457;-79
2024/01/31 03:39:59;;;;;;;54.93;26.17;;;7.80;99.90;;;;;;788747;180;27168;-79
2024/01/31 03:42:26;;;;;;;67.87;27.40;;;7.80;99.90;;;;;;772879;180;26613;-79
2024/01/31 03:44:53;;;;;;;65.40;25.80;;;7.80;99.90;;;;;;772913;185;27028;-76
2024/01/31 03:47:19;;;;;;;64.63;27.33;;;7.80;99.90;;;;;;772785;183;26457;-79
2024/01/31 03:49:46;;;;;;;67.37;27.40;;;7.70;99.90;;;;;;787642;180;26473;-79
2024/01/31 03:52:12;;;;;;;65.57;26.80;;;7.70;99.90;;;;;;790577;180;26453;-79
2024/01/31 03:54:39;;;;;;;65.63;27.63;;;7.70;99.90;;;;;;788334;181;26611;-78
2024/01/31 03:57:06;;;;;;;59.73;26.60;;;7.70;99.90;;;;;;784102;180;26506;-76
2024/01/31 03:59:32;;;;;;;71.73;27.57;;;7.70;99.90;;;;;;772791;183;26453;-78
2024/01/31 04:01:59;;;;;;;64.90;26.87;;;7.70;99.90;;;;;;772821;180;27032;-79
2024/01/31 04:04:25;;;;;;;64.20;26.90;;;7.70;99.90;;;;;;772557;185;26506;-77
2024/01/31 04:06:52;;;;;;;65.63;26.77;;;7.70;99.90;;;;;;791368;180;26486;-79
2024/01/31 04:09:19;;;;;;;65.83;25.93;;;7.70;99.90;;;;;;793678;178;26474;-76
2024/01/31 04:11:45;;;;;;;67.57;28.60;;;7.70;99.90;;;;;;793745;181;26493;-79
2024/01/31 04:14:12;;;;;;;66.60;27.23;;;7.70;99.90;;;;;;786814;179;26501;-79
2024/01/31 04:16:38;;;;;;;78.53;28.77;;;7.70;99.90;;;;;;777067;183;27036;-78
2024/01/31 04:19:07;;;;;;;73.17;27.87;;;7.70;99.90;;;;;;769237;183;26600;-78
2024/01/31 04:21:34;;;;;;;67.33;26.93;;;7.80;99.90;;;;;;785319;180;26486;-79
2024/01/31 04:24:01;;;;;;;67.20;27.60;;;7.70;99.90;;;;;;777762;180;27007;-79
2024/01/31 04:26:27;;;;;;;69.23;28.17;;;7.70;99.90;;;;;;774410;184;26469;-77
2024/01/31 04:28:54;;;;;;;64.63;28.17;;;7.80;99.90;;;;;;774675;185;26471;-79
2024/01/31 04:31:20;;;;;;;64.23;26.60;;;7.80;99.90;;;;;;782636;182;26502;-78
2024/01/31 04:33:47;;;;;;;70.77;28.87;;;7.80;99.90;;;;;;781593;180;27031;-76
2024/01/31 04:36:14;;;;;;;73.90;29.27;;;7.80;99.90;;;;;;780093;180;26477;-78
2024/01/31 04:38:40;;;;;;;70.27;28.17;;;7.80;99.90;;;;;;776519;180;26491;-79
2024/01/31 04:41:08;;;;;;;71.50;29.60;;;7.80;99.90;;;;;;782998;180;26466;-79
2024/01/31 04:43:35;;;;;;;87.07;29.67;;;7.70;99.90;;;;;;761230;186;26490;-77
2024/01/31 04:46:02;;;;;;;82.27;31.13;;;7.70;99.90;;;;;;774257;184;26561;-78
2024/01/31 04:48:28;;;;;;;90.73;32.50;;;7.70;99.90;;;;;;765931;183;27023;-77
2024/01/31 04:50:55;;;;;;;53.23;22.07;;;7.70;99.90;;;;;;774874;181;26506;-78
2024/01/31 04:53:21;;;;;;;53.70;21.27;;;7.60;99.90;;;;;;778939;181;26493;-77
2024/01/31 04:55:48;;;;;;;48.77;19.73;;;7.60;99.90;;;;;;776655;181;26478;-77
2024/01/31 04:58:14;;;;;;;48.97;19.90;;;7.50;99.90;;;;;;775100;180;26523;-78
2024/01/31 05:00:41;;;;;;;45.53;18.13;;;7.60;99.90;;;;;;776045;180;27016;-78
2024/01/31 05:03:08;;;;;;;48.10;19.13;;;7.50;99.90;;;;;;781238;181;26455;-78
2024/01/31 05:05:34;;;;;;;54.23;19.30;;;7.30;99.90;;;;;;777018;181;27030;-78
2024/01/31 05:08:01;;;;;;;50.23;18.37;;;7.20;99.90;;;;;;775264;183;26468;-78
2024/01/31 05:10:28;;;;;;;55.43;19.83;;;7.20;99.90;;;;;;789566;180;26472;-77
2024/01/31 05:12:54;;;;;;;54.80;19.93;;;7.10;99.90;;;;;;778080;181;26469;-77
2024/01/31 05:15:21;;;;;;;58.33;19.60;;;7.10;99.90;;;;;;780592;181;26477;-77
2024/01/31 05:17:48;;;;;;;58.93;19.63;;;7.00;99.90;;;;;;780969;181;26496;-78
2024/01/31 05:20:14;;;;;;;57.93;20.60;;;7.00;99.90;;;;;;776829;180;26464;-79
2024/01/31 05:22:42;;;;;;;49.97;17.37;;;7.00;99.90;;;;;;780743;178;26439;-80
2024/01/31 05:25:08;;;;;;;53.57;18.57;;;7.00;99.90;;;;;;779718;179;26628;-79
2024/01/31 05:27:36;;;;;;;46.63;17.47;;;7.00;99.90;;;;;;774058;180;26469;-79
2024/01/31 05:30:01;;;;;;;45.80;18.60;;;7.00;99.90;;;;;;775785;173;26527;-73
2024/01/31 05:32:28;;;;;;;46.07;16.27;;;7.10;99.90;;;;;;804426;176;26458;-74
2024/01/31 05:34:55;;;;;;;45.90;17.87;;;7.00;99.90;;;;;;808797;175;26520;-77
2024/01/31 05:37:21;;;;;;;51.10;18.23;;;7.00;99.90;;;;;;795671;176;26476;-76
2024/01/31 05:39:48;;;;;;;41.60;17.13;;;7.00;99.90;;;;;;791482;178;26595;-75
2024/01/31 05:42:14;;;;;;;41.63;16.53;;;7.00;99.90;;;;;;795961;178;26515;-76
2024/01/31 05:44:41;;;;;;;45.80;16.23;;;7.00;99.90;;;;;;796802;174;26446;-76
2024/01/31 05:47:08;;;;;;;38.07;16.13;;;7.10;99.90;;;;;;796274;177;26495;-77
2024/01/31 05:49:34;;;;;;;47.73;17.23;;;7.00;99.90;;;;;;792287;179;26422;-77
2024/01/31 05:52:01;;;;;;;38.60;15.53;;;7.00;99.90;;;;;;795113;177;26510;-76
2024/01/31 05:54:27;;;;;;;47.53;17.20;;;7.00;99.90;;;;;;788540;180;26485;-76
2024/01/31 05:56:54;;;;;;;49.93;17.00;;;7.10;99.90;;;;;;791207;176;26527;-76
2024/01/31 05:59:21;;;;;;;47.17;18.33;;;7.10;99.90;;;;;;799547;175;26987;-77
2024/01/31 06:01:47;;;;;;;42.50;16.43;;;7.10;99.90;;;;;;792260;177;26499;-76
2024/01/31 06:04:14;;;;;;;54.30;17.67;;;7.10;99.90;;;;;;803065;177;26905;-77
2024/01/31 06:06:40;;;;;;;38.57;17.40;;;7.10;99.90;;;;;;801801;178;26510;-74
2024/01/31 06:09:07;;;;;;;37.67;15.07;;;7.10;99.90;;;;;;801707;176;26460;-78
2024/01/31 06:11:33;;;;;;;41.93;16.43;;;7.10;99.90;;;;;;786852;181;26519;-76
2024/01/31 06:14:00;;;;;;;37.73;15.33;;;7.10;99.90;;;;;;800027;179;26962;-77
2024/01/31 06:16:27;;;;;;;39.17;15.30;;;7.00;99.90;;;;;;796521;177;26449;-76
2024/01/31 06:18:53;;;;;;;43.77;16.37;;;7.00;99.90;;;;;;795228;177;26441;-76
2024/01/31 06:21:20;;;;;;;44.83;16.50;;;7.00;99.90;;;;;;796644;177;26440;-76
2024/01/31 06:23:47;;;;;;;34.73;15.17;;;7.00;99.90;;;;;;806025;176;26455;-76
2024/01/31 06:26:13;;;;;;;40.23;15.07;;;7.00;99.90;;;;;;801882;176;26428;-76
2024/01/31 06:28:40;;;;;;;41.33;16.27;;;7.00;99.90;;;;;;802575;176;26441;-76
2024/01/31 06:33:39;;;;;;;39.97;15.87;;;7.10;99.90;;;;;;803942;177;26575;-76
2024/01/31 06:36:06;;;;;;;35.07;14.80;;;7.10;99.90;;;;;;798737;177;26454;-78
2024/01/31 06:38:32;;;;;;;42.70;17.73;;;7.00;99.90;;;;;;795391;177;27066;-77
2024/01/31 06:40:59;;;;;;;37.67;16.23;;;7.00;99.90;;;;;;800305;177;26445;-77
2024/01/31 06:43:25;;;;;;;44.37;17.43;;;7.00;99.90;;;;;;809839;177;26471;-77
2024/01/31 06:45:53;;;;;;;39.17;16.63;;;6.90;99.90;;;;;;793525;177;26484;-76
2024/01/31 06:48:18;;;;;;;41.97;16.40;;;6.90;99.90;;;;;;801739;177;26481;-77
2024/01/31 06:50:45;;;;;;;42.77;18.03;;;7.00;99.90;;;;;;794601;176;26473;-76
2024/01/31 06:53:12;;;;;;;39.47;14.77;;;7.00;99.90;;;;;;795577;179;27032;-77
2024/01/31 06:55:38;;;;;;;35.83;15.03;;;7.00;99.90;;;;;;805850;178;26490;-78
2024/01/31 06:58:05;;;;;;;38.47;15.03;;;7.00;99.90;;;;;;805707;178;27030;-77
2024/01/31 07:00:31;;;;;;;37.17;14.23;;;7.00;99.90;;;;;;804958;174;26445;-77
2024/01/31 07:02:58;;;;;;;35.00;14.37;;;7.00;99.90;;;;;;797228;177;27029;-77
2024/01/31 07:05:25;;;;;;;34.00;14.33;;;7.00;99.90;;;;;;794738;178;26499;-77
2024/01/31 07:07:51;;;;;;;37.27;16.90;;;7.00;99.90;;;;;;794585;177;27001;-76
2024/01/31 07:10:18;;;;;;;38.37;17.33;;;7.10;99.90;;;;;;786858;180;26452;-78
2024/01/31 07:12:44;;;;;;;45.43;17.03;;;7.10;99.90;;;;;;787832;177;27061;-77
2024/01/31 07:15:11;;;;;;;46.60;20.87;;;7.10;99.90;;;;;;793793;176;26436;-76
2024/01/31 07:17:37;;;;;;;49.70;20.00;;;7.20;99.90;;;;;;789287;180;27045;-77
2024/01/31 07:20:05;;;;;;;39.67;16.73;;;7.20;99.90;;;;;;788068;182;26471;-76
2024/01/31 07:22:31;;;;;;;45.77;17.90;;;7.10;99.90;;;;;;788214;182;26483;-77
2024/01/31 07:24:58;;;;;;;39.90;17.83;;;7.10;99.90;;;;;;793842;178;27067;-78
2024/01/31 07:27:25;;;;;;;45.80;19.13;;;7.10;99.90;;;;;;795876;177;26983;-78
2024/01/31 07:29:51;;;;;;;49.97;20.20;;;7.10;99.90;;;;;;787793;182;26429;-76
2024/01/31 07:32:18;;;;;;;50.23;19.07;;;7.10;99.90;;;;;;786515;183;26476;-75
2024/01/31 07:34:44;;;;;;;45.83;19.10;;;7.20;99.90;;;;;;788485;183;26433;-78
2024/01/31 07:37:11;;;;;;;47.97;18.53;;;7.20;99.90;;;;;;803458;177;26435;-79
2024/01/31 07:39:37;;;;;;;42.10;17.17;;;7.20;99.90;;;;;;808397;178;26449;-76
2024/01/31 07:42:04;;;;;;;37.20;15.37;;;7.20;99.90;;;;;;806918;178;26479;-76
2024/01/31 07:44:31;;;;;;;36.33;15.10;;;7.20;99.90;;;;;;799938;178;26467;-76
2024/01/31 07:47:02;;;;;;;45.13;18.40;;;7.20;99.90;;;;;;792743;180;26516;-77
2024/01/31 07:49:24;;;;;;;58.00;22.47;;;7.40;99.90;;;;;;798338;179;27034;-76
2024/01/31 07:51:56;;;;;;;53.47;21.67;;;7.40;99.90;;;;;;798976;177;26450;-76
2024/01/31 07:54:17;;;;;;;67.60;24.73;;;7.40;99.90;;;;;;800048;178;26444;-77
2024/01/31 07:56:44;;;;;;;60.73;22.67;;;7.40;99.90;;;;;;793573;178;26487;-76
2024/01/31 07:59:10;;;;;;;55.67;22.33;;;7.40;99.90;;;;;;790536;177;26467;-77
2024/01/31 08:01:37;;;;;;;59.07;22.70;;;7.50;99.90;;;;;;796549;176;26548;-76
2024/01/31 08:04:04;;;;;;;55.13;20.37;;;7.50;99.90;;;;;;809051;177;26461;-78
2024/01/31 08:06:30;;;;;;;56.57;21.07;;;7.60;99.90;;;;;;796193;177;26469;-76
2024/01/31 08:08:57;;;;;;;50.03;19.30;;;7.60;99.90;;;;;;806458;178;26431;-77
2024/01/31 08:11:23;;;;;;;37.57;16.37;;;7.60;99.90;;;;;;806819;178;26657;-77
2024/01/31 08:13:50;;;;;;;40.30;15.23;;;7.60;99.90;;;;;;806858;178;26483;-77
2024/01/31 08:16:17;;;;;;;38.67;15.80;;;7.40;99.90;;;;;;797576;177;26483;-78
2024/01/31 08:18:43;;;;;;;42.87;17.43;;;7.40;99.90;;;;;;798985;179;26448;-77
2024/01/31 08:21:10;;;;;;;43.03;16.37;;;7.50;99.90;;;;;;799235;179;26532;-78
2024/01/31 08:23:37;;;;;;;52.97;21.60;;;7.50;99.90;;;;;;799221;178;26475;-78
2024/01/31 08:26:06;;;;;;;49.27;20.33;;;7.60;99.90;;;;;;793757;178;26529;-77
2024/01/31 08:28:31;;;;;;;53.60;21.60;;;7.40;99.90;;;;;;794842;177;26428;-77
2024/01/31 08:30:58;;;;;;;56.27;23.73;;;7.40;99.90;;;;;;798560;180;26532;-78
2024/01/31 08:33:24;;;;;;;65.33;24.97;;;7.40;99.90;;;;;;799132;180;26517;-76
2024/01/31 08:35:51;;;;;;;70.60;26.20;;;7.50;99.90;;;;;;799910;178;26434;-78
2024/01/31 08:38:18;;;;;;;64.83;25.40;;;7.50;99.90;;;;;;788721;180;26492;-78
2024/01/31 08:40:45;;;;;;;69.90;28.17;;;7.60;99.90;;;;;;799585;180;26488;-78
2024/01/31 08:43:12;;;;;;;69.67;27.47;;;7.60;99.90;;;;;;799665;180;26429;-79
2024/01/31 08:45:38;;;;;;;74.07;26.57;;;7.50;99.90;;;;;;801256;177;26427;-77
2024/01/31 08:48:06;;;;;;;75.10;28.60;;;7.50;99.90;;;;;;806873;178;26450;-77
2024/01/31 08:50:32;;;;;;;78.67;29.50;;;7.60;99.90;;;;;;806875;178;26447;-75
2024/01/31 08:52:59;;;;;;;73.33;28.70;;;7.70;99.90;;;;;;806961;178;26435;-76
2024/01/31 08:55:26;;;;;;;72.37;28.10;;;7.60;99.90;;;;;;804934;178;26992;-78
2024/01/31 08:57:52;;;;;;;73.00;29.90;;;7.70;99.90;;;;;;806101;178;26454;-78
2024/01/31 09:00:19;;;;;;;81.07;31.57;;;7.70;99.90;;;;;;807432;178;26523;-77
2024/01/31 09:02:47;;;;;;;79.23;30.87;;;7.60;99.90;;;;;;805198;177;26419;-77
2024/01/31 09:05:13;;;;;;;78.70;28.53;;;7.60;99.90;;;;;;797089;177;26457;-76
2024/01/31 09:07:40;;;;;;;73.73;28.80;;;7.70;99.90;;;;;;805486;175;26432;-78
2024/01/31 09:10:07;;;;;;;78.93;29.17;;;7.70;99.90;;;;;;798398;178;26423;-77
2024/01/31 09:12:34;;;;;;;80.77;31.97;;;7.70;99.90;;;;;;778892;180;26474;-77
2024/01/31 09:15:01;;;;;;;79.87;30.97;;;7.70;99.90;;;;;;793447;180;26493;-77
2024/01/31 09:17:27;;;;;;;70.13;29.83;;;7.80;99.90;;;;;;778562;181;26445;-76
2024/01/31 09:19:53;;;;;;;73.87;30.30;;;7.80;99.90;;;;;;774821;181;27020;-77
2024/01/31 09:22:20;;;;;;;76.87;29.00;;;7.80;99.90;;;;;;775418;181;26472;-77
2024/01/31 09:24:47;;;;;;;73.40;30.97;;;7.80;99.90;;;;;;774017;184;27017;-78
2024/01/31 09:27:19;;;;;;;86.47;30.80;;;7.80;99.90;;;;;;777837;183;26503;-78
2024/01/31 09:29:41;;;;;;;78.43;30.80;;;7.90;99.90;;;;;;774244;178;26456;-77
2024/01/31 09:32:08;;;;;;;73.23;28.30;;;7.90;99.90;;;;;;782875;180;26496;-78
2024/01/31 09:34:35;;;;;;;78.23;30.27;;;7.90;99.90;;;;;;796417;177;26476;-77
2024/01/31 09:37:06;;;;;;;75.43;30.90;;;7.80;99.90;;;;;;793030;178;26457;-78
2024/01/31 09:39:34;;;;;;;77.13;32.10;;;7.80;99.90;;;;;;797416;177;26409;-77
2024/01/31 09:42:00;;;;;;;98.57;39.03;;;7.80;99.90;;;;;;792114;177;26443;-77
2024/01/31 09:44:27;;;;;;;63.33;28.47;;;7.80;99.90;;;;;;804506;178;26423;-77
2024/01/31 09:46:54;;;;;;;83.13;31.87;;;7.80;99.90;;;;;;797369;177;26483;-78
2024/01/31 09:49:26;;;;;;;84.43;30.63;;;7.80;99.90;;;;;;799774;178;26447;-79
2024/01/31 09:52:05;;;;;;;71.27;28.10;;;7.90;99.90;;;;;;800327;178;26498;-77
2024/01/31 09:54:31;;;;;;;63.03;27.43;;;7.90;99.90;;;;;;791849;180;26431;-77
2024/01/31 09:56:58;;;;;;;76.53;29.87;;;8.00;99.90;;;;;;798107;178;26424;-77
2024/01/31 09:59:26;;;;;;;70.30;28.20;;;8.00;99.90;;;;;;805193;177;26477;-78
2024/01/31 10:01:52;;;;;;;66.30;27.50;;;8.10;99.90;;;;;;804472;177;26443;-78
2024/01/31 10:04:19;;;;;;;61.43;24.67;;;8.10;99.90;;;;;;788480;177;26430;-77
2024/01/31 10:06:46;;;;;;;68.37;27.83;;;8.10;99.90;;;;;;807694;178;26451;-77
2024/01/31 10:09:15;;;;;;;67.67;27.13;;;8.20;99.90;;;;;;796648;177;26451;-77
2024/01/31 10:11:46;;;;;;;65.13;28.23;;;8.20;99.90;;;;;;806615;177;26445;-76
2024/01/31 10:14:12;;;;;;;63.80;26.83;;;8.20;99.90;;;;;;797759;178;26430;-77
2024/01/31 10:16:39;;;;;;;61.97;26.30;;;8.20;99.60;;;;;;798736;176;26419;-75
2024/01/31 10:19:06;;;;;;;67.10;29.80;;;8.20;99.70;;;;;;807373;175;26445;-76
2024/01/31 10:21:32;;;;;;;70.77;32.23;;;8.20;99.70;;;;;;792231;177;26475;-76
2024/01/31 10:24:00;;;;;;;70.20;32.07;;;8.30;99.60;;;;;;791039;181;26412;-76
2024/01/31 10:26:27;;;;;;;67.30;29.27;;;8.30;98.80;;;;;;788937;182;26511;-77
2024/01/31 10:28:54;;;;;;;66.80;27.50;;;8.30;98.00;;;;;;791554;178;26415;-77
2024/01/31 10:31:21;;;;;;;137.23;56.07;;;8.20;97.80;;;;;;798993;178;26454;-76
2024/01/31 10:33:47;;;;;;;105.53;45.73;;;8.20;96.80;;;;;;804794;177;27112;-78
2024/01/31 10:36:14;;;;;;;109.17;47.80;;;8.20;97.10;;;;;;789329;181;26413;-77
2024/01/31 10:38:40;;;;;;;55.37;26.20;;;8.20;96.80;;;;;;793290;177;26422;-77
2024/01/31 10:41:07;;;;;;;61.00;27.97;;;8.20;96.50;;;;;;790829;180;26447;-76
2024/01/31 10:43:34;;;;;;;81.40;37.10;;;8.30;96.70;;;;;;789256;181;26997;-76
2024/01/31 10:46:01;;;;;;;188.27;70.03;;;8.30;95.20;;;;;;789112;182;26425;-74
2024/01/31 10:48:27;;;;;;;40.40;20.47;;;8.30;95.30;;;;;;796505;178;26434;-77
2024/01/31 10:50:54;;;;;;;76.20;32.60;;;8.40;94.70;;;;;;798757;177;26475;-77
2024/01/31 10:53:20;;;;;;;56.30;27.93;;;8.30;94.20;;;;;;788647;182;26972;-75
2024/01/31 10:55:47;;;;;;;83.47;36.53;;;8.30;93.70;;;;;;789100;177;26522;-75
2024/01/31 10:58:13;;;;;;;146.50;57.60;;;8.40;93.60;;;;;;794967;178;26417;-76
2024/01/31 11:00:40;;;;;;;122.67;49.10;;;8.50;93.60;;;;;;796054;177;26447;-79
2024/01/31 11:03:07;;;;;;;33.57;16.40;;;8.50;93.00;;;;;;790685;177;26430;-78
2024/01/31 11:05:33;;;;;;;25.03;12.90;;;8.50;92.20;;;;;;796698;177;26435;-78
2024/01/31 11:08:00;;;;;;;60.80;27.97;;;8.60;92.20;;;;;;789324;181;26421;-77
2024/01/31 11:10:27;;;;;;;39.83;20.13;;;8.70;92.00;;;;;;791805;177;26445;-77
2024/01/31 11:13:01;;;;;;;22.53;13.63;;;8.70;91.90;;;;;;799610;177;26449;-77
2024/01/31 11:15:31;;;;;;;30.63;16.80;;;8.80;91.50;;;;;;802540;177;26441;-78
2024/01/31 11:18:05;;;;;;;20.70;10.87;;;8.80;90.90;;;;;;799125;178;26452;-78
2024/01/31 11:20:31;;;;;;;34.83;16.33;;;8.80;90.40;;;;;;812251;176;26448;-78
2024/01/31 11:23:00;;;;;;;77.13;33.47;;;8.80;90.10;;;;;;811968;174;26999;-77
2024/01/31 11:25:27;;;;;;;35.17;19.60;;;8.70;89.00;;;;;;811789;177;26445;-77
2024/01/31 11:27:54;;;;;;;35.10;17.67;;;8.70;89.50;;;;;;814742;175;26440;-76
2024/01/31 11:30:32;;;;;;;94.50;44.30;;;8.70;89.20;;;;;;803999;176;27072;-76
2024/01/31 11:33:00;;;;;;;31.13;16.07;;;8.80;88.80;;;;;;757745;189;26538;-78
2024/01/31 11:35:28;;;;;;;21.03;11.77;;;8.80;89.40;;;;;;757455;190;26519;-79
2024/01/31 11:37:54;;;;;;;26.77;13.60;;;8.80;88.60;;;;;;755987;190;26516;-80
2024/01/31 11:40:20;;;;;;;48.10;24.63;;;8.90;88.20;;;;;;757150;189;26518;-77
2024/01/31 11:42:47;;;;;;;87.87;33.13;;;8.90;87.70;;;;;;754259;186;27145;-80
2024/01/31 11:45:13;;;;;;;323.70;111.50;;;8.90;87.10;;;;;;749371;189;26514;-78
2024/01/31 11:47:40;;;;;;;96.17;41.80;;;8.90;88.50;;;;;;747571;191;27077;-79
2024/01/31 11:50:08;;;;;;;41.57;21.97;;;8.90;87.30;;;;;;753629;189;26513;-80
2024/01/31 11:52:34;;;;;;;40.17;20.50;;;8.90;86.80;;;;;;743725;193;26574;-77
2024/01/31 11:55:06;;;;;;;33.63;18.07;;;8.90;86.40;;;;;;745738;189;26576;-80
2024/01/31 11:57:30;;;;;;;103.27;42.20;;;8.90;85.50;;;;;;747191;189;26512;-79
2024/01/31 11:59:57;;;;;;;135.87;51.70;;;8.90;84.90;;;;;;754770;190;26506;-80
2024/01/31 12:02:23;;;;;;;135.10;56.93;;;8.80;85.00;;;;;;756677;189;26542;-80
2024/01/31 12:04:51;;;;;;;67.67;31.93;;;8.80;85.20;;;;;;751013;189;26529;-78
2024/01/31 12:07:18;;;;;;;34.00;16.23;;;8.90;84.80;;;;;;750812;189;27052;-78
2024/01/31 12:09:44;;;;;;;37.40;18.97;;;8.80;85.60;;;;;;749223;189;26504;-79
2024/01/31 12:12:10;;;;;;;21.67;12.17;;;8.80;85.70;;;;;;759392;187;26545;-80
2024/01/31 12:14:37;;;;;;;19.37;11.13;;;9.00;86.80;;;;;;752075;190;26518;-79
2024/01/31 12:17:04;;;;;;;18.20;11.13;;;9.00;87.80;;;;;;740900;192;26779;-77
2024/01/31 12:19:30;;;;;;;22.77;12.53;;;9.00;87.20;;;;;;747933;190;26507;-80
2024/01/31 12:21:57;;;;;;;16.47;11.17;;;9.10;84.60;;;;;;743787;190;26574;-79
2024/01/31 12:24:23;;;;;;;17.63;10.27;;;9.00;83.80;;;;;;752508;189;26553;-79
2024/01/31 12:26:51;;;;;;;204.70;78.83;;;9.00;80.90;;;;;;741032;193;26577;-78
2024/01/31 12:29:18;;;;;;;242.80;90.93;;;8.90;81.70;;;;;;745473;190;26529;-80
2024/01/31 12:31:45;;;;;;;85.90;35.53;;;8.90;82.60;;;;;;747636;190;28155;-78
2024/01/31 12:34:10;;;;;;;143.40;65.20;;;8.90;80.90;;;;;;736005;193;26550;-78